sensor_id;sensor_type;location;lat;lon;timestamp;temperature;humidity
33139;DHT22;19501;50.948;5.316;2023-02-13T00:01:51;3.10;99.90
33139;DHT22;19501;50.948;5.316;2023-02-13T00:04:17;3.10;99.90
33139;DHT22;19501;50.948;5.316;2023-02-13T00:06:42;3.10;99.90
33139;DHT22;19501;50.948;5.316;2023-02-13T00:09:08;2.80;99.90
33139;DHT22;19501;50.948;5.316;2023-02-13T00:11:35;2.60;99.90
33139;DHT22;19501;50.948;5.316;2023-02-13T00:14:01;2.50;99.90
33139;DHT22;19501;50.948;5.316;2023-02-13T00:16:26;2.60;99.90
33139;DHT22;19501;50.948;5.316;2023-02-13T00:18:52;2.70;99.90
33139;DHT22;19501;50.948;5.316;2023-02-13T00:21:17;2.80;99.90
33139;DHT22;19501;50.948;5.316;2023-02-13T00:23:43;2.80;99.90
33139;DHT22;19501;50.948;5.316;2023-02-13T00:26:10;2.80;99.90
33139;DHT22;19501;50.948;5.316;2023-02-13T00:28:36;2.50;99.90
33139;DHT22;19501;50.948;5.316;2023-02-13T00:31:06;2.40;99.90
33139;DHT22;19501;50.948;5.316;2023-02-13T00:33:31;2.10;99.90
33139;DHT22;19501;50.948;5.316;2023-02-13T00:38:29;2.20;99.90
33139;DHT22;19501;50.948;5.316;2023-02-13T00:40:57;2.30;99.90
33139;DHT22;19501;50.948;5.316;2023-02-13T00:43:22;2.40;99.90
33139;DHT22;19501;50.948;5.316;2023-02-13T00:45:48;2.50;99.90
33139;DHT22;19501;50.948;5.316;2023-02-13T00:48:13;2.50;99.90
33139;DHT22;19501;50.948;5.316;2023-02-13T00:50:39;2.50;99.90
33139;DHT22;19501;50.948;5.316;2023-02-13T00:53:04;2.50;99.90
33139;DHT22;19501;50.948;5.316;2023-02-13T00:55:30;2.40;99.90
33139;DHT22;19501;50.948;5.316;2023-02-13T00:57:55;2.20;99.90
33139;DHT22;19501;50.948;5.316;2023-02-13T01:00:21;2.20;99.90
33139;DHT22;19501;50.948;5.316;2023-02-13T01:02:46;2.20;99.90
33139;DHT22;19501;50.948;5.316;2023-02-13T01:05:12;2.20;99.90
33139;DHT22;19501;50.948;5.316;2023-02-13T01:07:38;2.20;99.90
33139;DHT22;19501;50.948;5.316;2023-02-13T01:10:04;2.20;99.90
33139;DHT22;19501;50.948;5.316;2023-02-13T01:12:30;2.10;99.90
33139;DHT22;19501;50.948;5.316;2023-02-13T01:14:55;2.00;99.90
33139;DHT22;19501;50.948;5.316;2023-02-13T01:17:21;1.90;99.90
33139;DHT22;19501;50.948;5.316;2023-02-13T01:19:46;2.00;99.90
33139;DHT22;19501;50.948;5.316;2023-02-13T01:22:12;2.00;99.90
33139;DHT22;19501;50.948;5.316;2023-02-13T01:24:37;2.10;99.90
33139;DHT22;19501;50.948;5.316;2023-02-13T01:27:03;2.10;99.90
33139;DHT22;19501;50.948;5.316;2023-02-13T01:29:28;2.30;99.90
33139;DHT22;19501;50.948;5.316;2023-02-13T01:31:54;2.30;99.90
33139;DHT22;19501;50.948;5.316;2023-02-13T01:34:19;2.30;99.90
33139;DHT22;19501;50.948;5.316;2023-02-13T01:36:45;2.40;99.90
33139;DHT22;19501;50.948;5.316;2023-02-13T01:39:11;2.40;99.90
33139;DHT22;19501;50.948;5.316;2023-02-13T01:41:36;2.30;99.90
33139;DHT22;19501;50.948;5.316;2023-02-13T01:46:48;2.20;99.90
33139;DHT22;19501;50.948;5.316;2023-02-13T01:49:15;2.20;99.90
33139;DHT22;19501;50.948;5.316;2023-02-13T01:51:42;2.20;99.90
33139;DHT22;19501;50.948;5.316;2023-02-13T01:54:16;2.20;99.90
33139;DHT22;19501;50.948;5.316;2023-02-13T01:56:44;2.20;99.90
33139;DHT22;19501;50.948;5.316;2023-02-13T01:59:12;2.20;99.90
33139;DHT22;19501;50.948;5.316;2023-02-13T02:01:39;2.20;99.90
33139;DHT22;19501;50.948;5.316;2023-02-13T02:04:09;2.30;99.90
33139;DHT22;19501;50.948;5.316;2023-02-13T02:06:41;2.30;99.90
33139;DHT22;19501;50.948;5.316;2023-02-13T02:09:10;2.20;99.90
33139;DHT22;19501;50.948;5.316;2023-02-13T02:14:07;1.90;99.90
33139;DHT22;19501;50.948;5.316;2023-02-13T02:16:33;1.40;99.90
33139;DHT22;19501;50.948;5.316;2023-02-13T02:19:03;1.30;99.90
33139;DHT22;19501;50.948;5.316;2023-02-13T02:21:38;1.30;99.90
33139;DHT22;19501;50.948;5.316;2023-02-13T02:24:15;1.40;99.90
33139;DHT22;19501;50.948;5.316;2023-02-13T02:29:40;1.60;99.90
33139;DHT22;19501;50.948;5.316;2023-02-13T02:34:53;1.80;99.90
33139;DHT22;19501;50.948;5.316;2023-02-13T02:40:12;1.60;99.90
33139;DHT22;19501;50.948;5.316;2023-02-13T02:48:04;1.50;99.90
33139;DHT22;19501;50.948;5.316;2023-02-13T02:51:24;1.60;99.90
33139;DHT22;19501;50.948;5.316;2023-02-13T02:56:30;1.80;99.90
33139;DHT22;19501;50.948;5.316;2023-02-13T02:59:00;1.70;99.90
33139;DHT22;19501;50.948;5.316;2023-02-13T03:01:44;1.70;99.90
33139;DHT22;19501;50.948;5.316;2023-02-13T03:04:36;1.70;99.90
33139;DHT22;19501;50.948;5.316;2023-02-13T03:07:21;1.70;99.90
33139;DHT22;19501;50.948;5.316;2023-02-13T03:09:47;1.80;99.90
33139;DHT22;19501;50.948;5.316;2023-02-13T03:12:35;1.70;99.90
33139;DHT22;19501;50.948;5.316;2023-02-13T03:15:23;1.70;99.90
33139;DHT22;19501;50.948;5.316;2023-02-13T03:17:49;1.80;99.90
33139;DHT22;19501;50.948;5.316;2023-02-13T03:20:54;1.80;99.90
33139;DHT22;19501;50.948;5.316;2023-02-13T03:23:44;1.90;99.90
33139;DHT22;19501;50.948;5.316;2023-02-13T03:31:31;2.00;99.90
33139;DHT22;19501;50.948;5.316;2023-02-13T03:34:09;2.00;99.90
33139;DHT22;19501;50.948;5.316;2023-02-13T03:41:56;1.90;99.90
33139;DHT22;19501;50.948;5.316;2023-02-13T03:46:48;2.00;99.90
33139;DHT22;19501;50.948;5.316;2023-02-13T03:49:38;1.90;99.90
33139;DHT22;19501;50.948;5.316;2023-02-13T03:54:47;1.90;99.90
33139;DHT22;19501;50.948;5.316;2023-02-13T03:57:32;1.80;99.90
33139;DHT22;19501;50.948;5.316;2023-02-13T04:00:17;1.80;99.90
33139;DHT22;19501;50.948;5.316;2023-02-13T04:02:49;1.80;99.90
33139;DHT22;19501;50.948;5.316;2023-02-13T04:05:17;1.80;99.90
33139;DHT22;19501;50.948;5.316;2023-02-13T04:07:45;1.90;99.90
33139;DHT22;19501;50.948;5.316;2023-02-13T04:10:14;2.00;99.90
33139;DHT22;19501;50.948;5.316;2023-02-13T04:15:16;2.00;99.90
33139;DHT22;19501;50.948;5.316;2023-02-13T04:18:06;2.00;99.90
33139;DHT22;19501;50.948;5.316;2023-02-13T04:20:30;2.00;99.90
33139;DHT22;19501;50.948;5.316;2023-02-13T04:22:56;2.00;99.90
33139;DHT22;19501;50.948;5.316;2023-02-13T04:25:21;2.00;99.90
33139;DHT22;19501;50.948;5.316;2023-02-13T04:27:47;2.10;99.90
33139;DHT22;19501;50.948;5.316;2023-02-13T04:30:15;2.10;99.90
33139;DHT22;19501;50.948;5.316;2023-02-13T04:32:41;2.20;99.90
33139;DHT22;19501;50.948;5.316;2023-02-13T04:35:06;2.20;99.90
33139;DHT22;19501;50.948;5.316;2023-02-13T04:37:32;2.20;99.90
33139;DHT22;19501;50.948;5.316;2023-02-13T04:39:57;2.30;99.90
33139;DHT22;19501;50.948;5.316;2023-02-13T04:42:23;2.30;99.90
33139;DHT22;19501;50.948;5.316;2023-02-13T04:44:51;2.30;99.90
33139;DHT22;19501;50.948;5.316;2023-02-13T04:47:18;2.40;99.90
33139;DHT22;19501;50.948;5.316;2023-02-13T04:49:44;2.40;99.90
33139;DHT22;19501;50.948;5.316;2023-02-13T04:52:09;2.30;99.90
33139;DHT22;19501;50.948;5.316;2023-02-13T04:54:35;2.20;99.90
33139;DHT22;19501;50.948;5.316;2023-02-13T04:57:01;2.20;99.90
33139;DHT22;19501;50.948;5.316;2023-02-13T04:59:26;2.20;99.90
33139;DHT22;19501;50.948;5.316;2023-02-13T05:01:52;2.20;99.90
33139;DHT22;19501;50.948;5.316;2023-02-13T05:04:18;2.30;99.90
33139;DHT22;19501;50.948;5.316;2023-02-13T05:06:43;2.20;99.90
33139;DHT22;19501;50.948;5.316;2023-02-13T05:09:09;2.20;99.90
33139;DHT22;19501;50.948;5.316;2023-02-13T05:11:35;2.20;99.90
33139;DHT22;19501;50.948;5.316;2023-02-13T05:14:00;2.20;99.90
33139;DHT22;19501;50.948;5.316;2023-02-13T05:16:26;2.10;99.90
33139;DHT22;19501;50.948;5.316;2023-02-13T05:18:51;2.10;99.90
33139;DHT22;19501;50.948;5.316;2023-02-13T05:21:22;2.10;99.90
33139;DHT22;19501;50.948;5.316;2023-02-13T05:24:06;2.10;99.90
33139;DHT22;19501;50.948;5.316;2023-02-13T05:26:31;2.10;99.90
33139;DHT22;19501;50.948;5.316;2023-02-13T05:28:57;2.10;99.90
33139;DHT22;19501;50.948;5.316;2023-02-13T05:31:41;2.10;99.90
33139;DHT22;19501;50.948;5.316;2023-02-13T05:34:06;2.20;99.90
33139;DHT22;19501;50.948;5.316;2023-02-13T05:36:32;2.20;99.90
33139;DHT22;19501;50.948;5.316;2023-02-13T05:38:57;2.10;99.90
33139;DHT22;19501;50.948;5.316;2023-02-13T05:41:23;2.20;99.90
33139;DHT22;19501;50.948;5.316;2023-02-13T05:43:48;2.10;99.90
33139;DHT22;19501;50.948;5.316;2023-02-13T05:46:14;2.20;99.90
33139;DHT22;19501;50.948;5.316;2023-02-13T05:48:39;2.20;99.90
33139;DHT22;19501;50.948;5.316;2023-02-13T05:51:05;2.10;99.90
33139;DHT22;19501;50.948;5.316;2023-02-13T05:53:31;2.10;99.90
33139;DHT22;19501;50.948;5.316;2023-02-13T05:56:00;2.20;99.90
33139;DHT22;19501;50.948;5.316;2023-02-13T05:58:25;2.10;99.90
33139;DHT22;19501;50.948;5.316;2023-02-13T06:00:54;1.90;99.90
33139;DHT22;19501;50.948;5.316;2023-02-13T06:03:19;2.00;99.90
33139;DHT22;19501;50.948;5.316;2023-02-13T06:05:45;2.00;99.90
33139;DHT22;19501;50.948;5.316;2023-02-13T06:08:10;2.00;99.90
33139;DHT22;19501;50.948;5.316;2023-02-13T06:10:36;2.00;99.90
33139;DHT22;19501;50.948;5.316;2023-02-13T06:13:01;2.00;99.90
33139;DHT22;19501;50.948;5.316;2023-02-13T06:15:27;2.00;99.90
33139;DHT22;19501;50.948;5.316;2023-02-13T06:17:52;2.00;99.90
33139;DHT22;19501;50.948;5.316;2023-02-13T06:20:18;2.10;99.90
33139;DHT22;19501;50.948;5.316;2023-02-13T06:22:46;2.00;99.90
33139;DHT22;19501;50.948;5.316;2023-02-13T06:25:12;1.90;99.90
33139;DHT22;19501;50.948;5.316;2023-02-13T06:27:37;2.00;99.90
33139;DHT22;19501;50.948;5.316;2023-02-13T06:30:03;2.10;99.90
33139;DHT22;19501;50.948;5.316;2023-02-13T06:32:28;2.00;99.90
33139;DHT22;19501;50.948;5.316;2023-02-13T06:34:54;2.00;99.90
33139;DHT22;19501;50.948;5.316;2023-02-13T06:37:19;2.00;99.90
33139;DHT22;19501;50.948;5.316;2023-02-13T06:39:45;2.10;99.90
33139;DHT22;19501;50.948;5.316;2023-02-13T06:42:10;2.10;99.90
33139;DHT22;19501;50.948;5.316;2023-02-13T06:44:36;2.00;99.90
33139;DHT22;19501;50.948;5.316;2023-02-13T06:47:01;2.00;99.90
33139;DHT22;19501;50.948;5.316;2023-02-13T06:49:27;2.00;99.90
33139;DHT22;19501;50.948;5.316;2023-02-13T06:51:52;2.10;99.90
33139;DHT22;19501;50.948;5.316;2023-02-13T06:54:18;2.00;99.90
33139;DHT22;19501;50.948;5.316;2023-02-13T06:56:44;2.00;99.90
33139;DHT22;19501;50.948;5.316;2023-02-13T06:59:09;2.00;99.90
33139;DHT22;19501;50.948;5.316;2023-02-13T07:01:35;2.10;99.90
33139;DHT22;19501;50.948;5.316;2023-02-13T07:04:00;2.00;99.90
33139;DHT22;19501;50.948;5.316;2023-02-13T07:06:26;2.10;99.90
33139;DHT22;19501;50.948;5.316;2023-02-13T07:08:51;2.00;99.90
33139;DHT22;19501;50.948;5.316;2023-02-13T07:11:21;1.80;99.90
33139;DHT22;19501;50.948;5.316;2023-02-13T07:13:47;1.70;99.90
33139;DHT22;19501;50.948;5.316;2023-02-13T07:16:13;1.40;99.90
33139;DHT22;19501;50.948;5.316;2023-02-13T07:18:39;1.50;99.90
33139;DHT22;19501;50.948;5.316;2023-02-13T07:21:04;1.40;99.90
33139;DHT22;19501;50.948;5.316;2023-02-13T07:23:30;1.60;99.90
33139;DHT22;19501;50.948;5.316;2023-02-13T07:25:57;1.70;99.90
33139;DHT22;19501;50.948;5.316;2023-02-13T07:28:23;2.00;99.90
33139;DHT22;19501;50.948;5.316;2023-02-13T07:30:48;1.80;99.90
33139;DHT22;19501;50.948;5.316;2023-02-13T07:33:14;1.80;99.90
33139;DHT22;19501;50.948;5.316;2023-02-13T07:35:44;1.80;99.90
33139;DHT22;19501;50.948;5.316;2023-02-13T07:38:10;1.70;99.90
33139;DHT22;19501;50.948;5.316;2023-02-13T07:40:35;1.60;99.90
33139;DHT22;19501;50.948;5.316;2023-02-13T07:43:03;1.40;99.90
33139;DHT22;19501;50.948;5.316;2023-02-13T07:45:28;1.30;99.90
33139;DHT22;19501;50.948;5.316;2023-02-13T07:47:54;1.20;99.90
33139;DHT22;19501;50.948;5.316;2023-02-13T07:50:20;1.10;99.90
33139;DHT22;19501;50.948;5.316;2023-02-13T07:52:55;1.10;99.90
33139;DHT22;19501;50.948;5.316;2023-02-13T07:55:21;1.10;99.90
33139;DHT22;19501;50.948;5.316;2023-02-13T07:57:47;1.00;99.90
33139;DHT22;19501;50.948;5.316;2023-02-13T08:00:13;1.10;99.90
33139;DHT22;19501;50.948;5.316;2023-02-13T08:02:39;1.20;99.90
33139;DHT22;19501;50.948;5.316;2023-02-13T08:05:04;1.40;99.90
33139;DHT22;19501;50.948;5.316;2023-02-13T08:07:30;1.40;99.90
33139;DHT22;19501;50.948;5.316;2023-02-13T08:09:58;1.40;99.90
33139;DHT22;19501;50.948;5.316;2023-02-13T08:12:42;1.50;99.90
33139;DHT22;19501;50.948;5.316;2023-02-13T08:15:11;1.60;99.90
33139;DHT22;19501;50.948;5.316;2023-02-13T08:17:37;1.80;99.90
33139;DHT22;19501;50.948;5.316;2023-02-13T08:20:03;1.90;99.90
33139;DHT22;19501;50.948;5.316;2023-02-13T08:22:28;2.00;99.90
33139;DHT22;19501;50.948;5.316;2023-02-13T08:24:54;2.10;99.90
33139;DHT22;19501;50.948;5.316;2023-02-13T08:27:22;2.10;99.90
33139;DHT22;19501;50.948;5.316;2023-02-13T08:29:48;2.20;99.90
33139;DHT22;19501;50.948;5.316;2023-02-13T08:32:14;2.30;99.90
33139;DHT22;19501;50.948;5.316;2023-02-13T08:34:40;2.40;99.90
33139;DHT22;19501;50.948;5.316;2023-02-13T08:37:08;2.50;99.90
33139;DHT22;19501;50.948;5.316;2023-02-13T08:39:33;2.50;99.90
33139;DHT22;19501;50.948;5.316;2023-02-13T08:41:59;2.50;99.90
33139;DHT22;19501;50.948;5.316;2023-02-13T08:44:24;2.60;99.90
33139;DHT22;19501;50.948;5.316;2023-02-13T08:46:50;2.70;99.90
33139;DHT22;19501;50.948;5.316;2023-02-13T08:49:16;2.80;99.90
33139;DHT22;19501;50.948;5.316;2023-02-13T08:51:41;2.90;99.90
33139;DHT22;19501;50.948;5.316;2023-02-13T08:54:07;3.10;99.90
33139;DHT22;19501;50.948;5.316;2023-02-13T08:56:32;3.10;99.90
33139;DHT22;19501;50.948;5.316;2023-02-13T08:58:59;3.10;99.90
33139;DHT22;19501;50.948;5.316;2023-02-13T09:01:24;3.20;99.90
33139;DHT22;19501;50.948;5.316;2023-02-13T09:03:50;3.30;99.90
33139;DHT22;19501;50.948;5.316;2023-02-13T09:06:16;3.40;99.90
33139;DHT22;19501;50.948;5.316;2023-02-13T09:08:41;3.50;99.90
33139;DHT22;19501;50.948;5.316;2023-02-13T09:11:08;3.70;99.90
33139;DHT22;19501;50.948;5.316;2023-02-13T09:13:34;3.80;99.90
33139;DHT22;19501;50.948;5.316;2023-02-13T09:16:04;3.80;99.90
33139;DHT22;19501;50.948;5.316;2023-02-13T09:18:30;3.90;99.90
33139;DHT22;19501;50.948;5.316;2023-02-13T09:20:57;4.00;99.90
33139;DHT22;19501;50.948;5.316;2023-02-13T09:23:23;4.10;99.90
33139;DHT22;19501;50.948;5.316;2023-02-13T09:25:48;4.20;99.90
33139;DHT22;19501;50.948;5.316;2023-02-13T09:28:14;4.30;99.90
33139;DHT22;19501;50.948;5.316;2023-02-13T09:30:39;4.40;99.90
33139;DHT22;19501;50.948;5.316;2023-02-13T09:33:08;4.50;99.90
33139;DHT22;19501;50.948;5.316;2023-02-13T09:35:34;4.60;99.90
33139;DHT22;19501;50.948;5.316;2023-02-13T09:38:00;4.70;99.90
33139;DHT22;19501;50.948;5.316;2023-02-13T09:40:27;4.70;99.90
33139;DHT22;19501;50.948;5.316;2023-02-13T09:42:58;4.70;99.90
33139;DHT22;19501;50.948;5.316;2023-02-13T09:45:25;4.80;99.90
33139;DHT22;19501;50.948;5.316;2023-02-13T09:47:51;4.90;99.90
33139;DHT22;19501;50.948;5.316;2023-02-13T09:50:20;4.90;99.90
33139;DHT22;19501;50.948;5.316;2023-02-13T09:52:49;5.00;99.90
33139;DHT22;19501;50.948;5.316;2023-02-13T09:55:16;5.20;99.90
33139;DHT22;19501;50.948;5.316;2023-02-13T09:57:52;5.30;99.90
33139;DHT22;19501;50.948;5.316;2023-02-13T10:00:29;5.40;99.90
33139;DHT22;19501;50.948;5.316;2023-02-13T10:05:43;5.60;99.90
33139;DHT22;19501;50.948;5.316;2023-02-13T10:14:15;6.00;99.90
33139;DHT22;19501;50.948;5.316;2023-02-13T10:21:53;6.30;99.90
33139;DHT22;19501;50.948;5.316;2023-02-13T10:26:45;6.60;99.90
33139;DHT22;19501;50.948;5.316;2023-02-13T10:29:13;6.70;99.90
33139;DHT22;19501;50.948;5.316;2023-02-13T10:31:59;6.80;99.90
33139;DHT22;19501;50.948;5.316;2023-02-13T10:34:27;6.90;99.90
33139;DHT22;19501;50.948;5.316;2023-02-13T10:36:55;7.00;99.90
33139;DHT22;19501;50.948;5.316;2023-02-13T10:39:28;7.00;99.90
33139;DHT22;19501;50.948;5.316;2023-02-13T10:41:58;7.10;99.90
33139;DHT22;19501;50.948;5.316;2023-02-13T11:02:26;8.20;99.90
33139;DHT22;19501;50.948;5.316;2023-02-13T11:05:04;8.40;99.90
33139;DHT22;19501;50.948;5.316;2023-02-13T11:07:32;8.50;99.90
33139;DHT22;19501;50.948;5.316;2023-02-13T11:10:00;8.70;99.90
33139;DHT22;19501;50.948;5.316;2023-02-13T11:12:29;8.90;99.90
33139;DHT22;19501;50.948;5.316;2023-02-13T11:14:56;9.00;99.90
33139;DHT22;19501;50.948;5.316;2023-02-13T11:17:22;9.20;99.90
33139;DHT22;19501;50.948;5.316;2023-02-13T11:19:50;9.30;99.90
33139;DHT22;19501;50.948;5.316;2023-02-13T11:22:32;9.50;99.90
33139;DHT22;19501;50.948;5.316;2023-02-13T11:24:59;9.70;99.90
33139;DHT22;19501;50.948;5.316;2023-02-13T11:27:27;9.80;99.90
33139;DHT22;19501;50.948;5.316;2023-02-13T11:29:59;10.00;99.90
33139;DHT22;19501;50.948;5.316;2023-02-13T11:32:28;10.20;99.90
33139;DHT22;19501;50.948;5.316;2023-02-13T11:34:54;10.40;99.90
33139;DHT22;19501;50.948;5.316;2023-02-13T11:37:26;10.60;99.90
33139;DHT22;19501;50.948;5.316;2023-02-13T11:39:53;10.80;99.90
33139;DHT22;19501;50.948;5.316;2023-02-13T11:42:24;11.10;99.90
33139;DHT22;19501;50.948;5.316;2023-02-13T11:45:04;11.60;99.90
33139;DHT22;19501;50.948;5.316;2023-02-13T11:50:00;14.10;99.90
33139;DHT22;19501;50.948;5.316;2023-02-13T11:52:30;14.90;99.90
33139;DHT22;19501;50.948;5.316;2023-02-13T11:54:57;15.80;99.90
33139;DHT22;19501;50.948;5.316;2023-02-13T11:57:31;16.80;99.90
33139;DHT22;19501;50.948;5.316;2023-02-13T11:59:57;18.00;99.90
33139;DHT22;19501;50.948;5.316;2023-02-13T12:04:52;19.30;99.90
33139;DHT22;19501;50.948;5.316;2023-02-13T12:09:44;20.30;99.90
33139;DHT22;19501;50.948;5.316;2023-02-13T12:12:15;20.40;99.90
33139;DHT22;19501;50.948;5.316;2023-02-13T12:14:42;21.10;99.90
33139;DHT22;19501;50.948;5.316;2023-02-13T12:17:14;21.60;99.90
33139;DHT22;19501;50.948;5.316;2023-02-13T12:19:41;22.10;99.90
33139;DHT22;19501;50.948;5.316;2023-02-13T12:24:49;23.20;97.50
33139;DHT22;19501;50.948;5.316;2023-02-13T12:27:43;23.30;96.60
33139;DHT22;19501;50.948;5.316;2023-02-13T12:43:21;24.00;93.30
33139;DHT22;19501;50.948;5.316;2023-02-13T12:46:32;24.70;92.80
33139;DHT22;19501;50.948;5.316;2023-02-13T12:51:12;25.80;90.60
33139;DHT22;19501;50.948;5.316;2023-02-13T12:53:48;25.60;89.50
33139;DHT22;19501;50.948;5.316;2023-02-13T12:56:39;26.20;88.10
33139;DHT22;19501;50.948;5.316;2023-02-13T13:16:43;27.30;75.70
33139;DHT22;19501;50.948;5.316;2023-02-13T13:27:03;27.30;75.70
33139;DHT22;19501;50.948;5.316;2023-02-13T13:29:40;27.90;74.70
33139;DHT22;19501;50.948;5.316;2023-02-13T13:32:07;28.50;73.00
33139;DHT22;19501;50.948;5.316;2023-02-13T13:34:33;28.80;71.00
33139;DHT22;19501;50.948;5.316;2023-02-13T13:37:04;28.50;72.20
33139;DHT22;19501;50.948;5.316;2023-02-13T13:46:59;28.40;69.40
33139;DHT22;19501;50.948;5.316;2023-02-13T13:51:52;28.90;67.70
33139;DHT22;19501;50.948;5.316;2023-02-13T13:54:19;29.20;66.90
33139;DHT22;19501;50.948;5.316;2023-02-13T14:07:26;28.00;67.20
33139;DHT22;19501;50.948;5.316;2023-02-13T14:09:57;28.10;65.70
33139;DHT22;19501;50.948;5.316;2023-02-13T14:14:48;26.60;69.20
33139;DHT22;19501;50.948;5.316;2023-02-13T14:17:15;26.40;67.20
33139;DHT22;19501;50.948;5.316;2023-02-13T14:19:42;26.10;69.10
33139;DHT22;19501;50.948;5.316;2023-02-13T14:24:56;26.00;69.30
33139;DHT22;19501;50.948;5.316;2023-02-13T14:29:47;26.00;69.10
33139;DHT22;19501;50.948;5.316;2023-02-13T14:35:01;24.40;68.50
33139;DHT22;19501;50.948;5.316;2023-02-13T14:37:29;22.50;71.60
33139;DHT22;19501;50.948;5.316;2023-02-13T14:42:39;22.60;72.50
33139;DHT22;19501;50.948;5.316;2023-02-13T14:45:13;22.60;73.80
33139;DHT22;19501;50.948;5.316;2023-02-13T14:47:41;22.60;73.30
33139;DHT22;19501;50.948;5.316;2023-02-13T14:50:14;22.60;71.90
33139;DHT22;19501;50.948;5.316;2023-02-13T14:52:41;22.20;72.70
33139;DHT22;19501;50.948;5.316;2023-02-13T14:55:12;22.20;72.60
33139;DHT22;19501;50.948;5.316;2023-02-13T14:58:14;21.90;73.60
33139;DHT22;19501;50.948;5.316;2023-02-13T15:03:00;21.60;73.80
33139;DHT22;19501;50.948;5.316;2023-02-13T15:05:33;21.00;74.20
33139;DHT22;19501;50.948;5.316;2023-02-13T15:08:15;21.10;75.80
33139;DHT22;19501;50.948;5.316;2023-02-13T15:15:39;20.40;76.00
33139;DHT22;19501;50.948;5.316;2023-02-13T15:18:25;20.20;76.10
33139;DHT22;19501;50.948;5.316;2023-02-13T15:20:52;20.10;76.20
33139;DHT22;19501;50.948;5.316;2023-02-13T15:23:23;20.00;77.60
33139;DHT22;19501;50.948;5.316;2023-02-13T15:25:57;19.80;76.80
33139;DHT22;19501;50.948;5.316;2023-02-13T15:28:23;19.50;78.00
33139;DHT22;19501;50.948;5.316;2023-02-13T15:30:57;19.50;78.70
33139;DHT22;19501;50.948;5.316;2023-02-13T15:33:23;19.10;78.40
33139;DHT22;19501;50.948;5.316;2023-02-13T15:35:56;18.70;80.10
33139;DHT22;19501;50.948;5.316;2023-02-13T15:38:29;18.60;80.80
33139;DHT22;19501;50.948;5.316;2023-02-13T15:40:56;18.70;80.90
33139;DHT22;19501;50.948;5.316;2023-02-13T15:46:17;17.80;81.00
33139;DHT22;19501;50.948;5.316;2023-02-13T15:48:44;18.00;83.90
33139;DHT22;19501;50.948;5.316;2023-02-13T15:51:11;18.30;82.10
33139;DHT22;19501;50.948;5.316;2023-02-13T15:53:52;18.30;81.80
33139;DHT22;19501;50.948;5.316;2023-02-13T15:56:18;18.60;82.30
33139;DHT22;19501;50.948;5.316;2023-02-13T15:58:43;18.60;81.10
33139;DHT22;19501;50.948;5.316;2023-02-13T16:01:09;18.80;82.00
33139;DHT22;19501;50.948;5.316;2023-02-13T16:03:35;18.80;82.80
33139;DHT22;19501;50.948;5.316;2023-02-13T16:06:04;18.60;82.50
33139;DHT22;19501;50.948;5.316;2023-02-13T16:08:36;18.40;83.80
33139;DHT22;19501;50.948;5.316;2023-02-13T16:13:58;17.90;84.00
33139;DHT22;19501;50.948;5.316;2023-02-13T16:16:27;17.50;85.80
33139;DHT22;19501;50.948;5.316;2023-02-13T16:18:55;17.00;86.50
33139;DHT22;19501;50.948;5.316;2023-02-13T16:21:25;16.50;87.70
33139;DHT22;19501;50.948;5.316;2023-02-13T16:23:59;16.00;89.00
33139;DHT22;19501;50.948;5.316;2023-02-13T16:26:26;15.60;90.00
33139;DHT22;19501;50.948;5.316;2023-02-13T16:28:51;15.60;90.70
33139;DHT22;19501;50.948;5.316;2023-02-13T16:31:17;15.50;91.20
33139;DHT22;19501;50.948;5.316;2023-02-13T16:33:43;15.40;91.70
33139;DHT22;19501;50.948;5.316;2023-02-13T16:38:46;15.40;91.30
33139;DHT22;19501;50.948;5.316;2023-02-13T16:43:48;15.00;91.60
33139;DHT22;19501;50.948;5.316;2023-02-13T16:48:57;14.70;92.10
33139;DHT22;19501;50.948;5.316;2023-02-13T16:53:55;14.40;92.60
33139;DHT22;19501;50.948;5.316;2023-02-13T16:56:21;14.30;92.60
33139;DHT22;19501;50.948;5.316;2023-02-13T16:58:46;14.10;92.50
33139;DHT22;19501;50.948;5.316;2023-02-13T17:01:12;14.00;92.80
33139;DHT22;19501;50.948;5.316;2023-02-13T17:03:39;13.60;93.20
33139;DHT22;19501;50.948;5.316;2023-02-13T17:06:05;13.50;93.60
33139;DHT22;19501;50.948;5.316;2023-02-13T17:08:30;13.40;93.80
33139;DHT22;19501;50.948;5.316;2023-02-13T17:11:00;13.30;93.90
33139;DHT22;19501;50.948;5.316;2023-02-13T17:13:27;13.20;94.20
33139;DHT22;19501;50.948;5.316;2023-02-13T17:15:52;13.10;94.50
33139;DHT22;19501;50.948;5.316;2023-02-13T17:18:19;13.10;94.60
33139;DHT22;19501;50.948;5.316;2023-02-13T17:20:47;13.10;94.70
33139;DHT22;19501;50.948;5.316;2023-02-13T17:23:17;12.90;95.00
33139;DHT22;19501;50.948;5.316;2023-02-13T17:25:43;12.80;95.10
33139;DHT22;19501;50.948;5.316;2023-02-13T17:28:14;12.50;95.40
33139;DHT22;19501;50.948;5.316;2023-02-13T17:30:43;12.30;95.80
33139;DHT22;19501;50.948;5.316;2023-02-13T17:33:16;12.20;96.10
33139;DHT22;19501;50.948;5.316;2023-02-13T17:35:43;12.10;96.40
33139;DHT22;19501;50.948;5.316;2023-02-13T17:38:08;12.10;96.40
33139;DHT22;19501;50.948;5.316;2023-02-13T17:40:34;12.10;96.30
33139;DHT22;19501;50.948;5.316;2023-02-13T17:43:00;12.00;96.50
33139;DHT22;19501;50.948;5.316;2023-02-13T17:45:30;12.00;96.90
33139;DHT22;19501;50.948;5.316;2023-02-13T17:47:56;12.00;97.10
33139;DHT22;19501;50.948;5.316;2023-02-13T17:50:22;11.80;97.30
33139;DHT22;19501;50.948;5.316;2023-02-13T17:52:48;11.80;97.50
33139;DHT22;19501;50.948;5.316;2023-02-13T17:55:15;11.70;97.70
33139;DHT22;19501;50.948;5.316;2023-02-13T17:57:41;11.60;97.90
33139;DHT22;19501;50.948;5.316;2023-02-13T18:00:07;11.60;98.10
33139;DHT22;19501;50.948;5.316;2023-02-13T18:02:33;11.50;98.30
33139;DHT22;19501;50.948;5.316;2023-02-13T18:04:58;11.50;98.40
33139;DHT22;19501;50.948;5.316;2023-02-13T18:07:24;11.50;98.50
33139;DHT22;19501;50.948;5.316;2023-02-13T18:09:49;11.40;98.60
33139;DHT22;19501;50.948;5.316;2023-02-13T18:12:17;11.30;98.80
33139;DHT22;19501;50.948;5.316;2023-02-13T18:14:43;11.30;99.10
33139;DHT22;19501;50.948;5.316;2023-02-13T18:17:09;11.30;99.20
33139;DHT22;19501;50.948;5.316;2023-02-13T18:19:34;11.30;99.40
33139;DHT22;19501;50.948;5.316;2023-02-13T18:22:04;11.20;99.50
33139;DHT22;19501;50.948;5.316;2023-02-13T18:24:31;11.20;99.60
33139;DHT22;19501;50.948;5.316;2023-02-13T18:26:57;11.00;99.90
33139;DHT22;19501;50.948;5.316;2023-02-13T18:29:23;10.90;99.90
33139;DHT22;19501;50.948;5.316;2023-02-13T18:31:49;10.90;99.90
33139;DHT22;19501;50.948;5.316;2023-02-13T18:34:21;10.80;99.90
33139;DHT22;19501;50.948;5.316;2023-02-13T18:36:47;10.70;99.90
33139;DHT22;19501;50.948;5.316;2023-02-13T18:39:13;10.70;99.90
33139;DHT22;19501;50.948;5.316;2023-02-13T18:41:39;10.60;99.90
33139;DHT22;19501;50.948;5.316;2023-02-13T18:44:04;10.50;99.90
33139;DHT22;19501;50.948;5.316;2023-02-13T18:46:30;10.10;99.90
33139;DHT22;19501;50.948;5.316;2023-02-13T18:48:55;9.90;99.90
33139;DHT22;19501;50.948;5.316;2023-02-13T18:51:21;9.80;99.90
33139;DHT22;19501;50.948;5.316;2023-02-13T18:53:46;9.80;99.90